Time;durP1;ratioP1;P1;durP2;ratioP2;P2;SDS_P1;SDS_P2;PMS_P1;PMS_P2;Temp;Humidity;BMP_temperature;BMP_pressure;BME280_temperature;BME280_humidity;BME280_pressure;Samples;Min_cycle;Max_cycle;Signal;HPM_P1;HPM_P2
2021/11/26 00:00:13;;;;;;;0.50;0.50;;;;;;;;;;1842026;77;26342;-29
2021/11/26 00:02:40;;;;;;;1.00;0.40;;;;;;;;;;1833720;77;26252;-29
2021/11/26 00:05:08;;;;;;;0.37;0.30;;;;;;;;;;1835222;77;27369;-28
2021/11/26 00:07:35;;;;;;;0.40;0.40;;;;;;;;;;1845344;77;26330;-31
2021/11/26 00:10:04;;;;;;;0.30;0.30;;;;;;;;;;1831145;77;26354;-31
2021/11/26 00:12:31;;;;;;;0.30;0.30;;;;;;;;;;1831829;77;26378;-30
2021/11/26 00:17:44;;;;;;;0.50;0.50;;;;;;;;;;1839893;77;26305;-30
2021/11/26 00:20:00;;;;;;;0.40;0.40;;;;;;;;;;1823690;77;26309;-29
2021/11/26 00:22:27;;;;;;;0.30;0.30;;;;;;;;;;1837804;77;26201;-28
2021/11/26 00:24:54;;;;;;;0.30;0.30;;;;;;;;;;1830799;77;26692;-29
2021/11/26 00:27:22;;;;;;;0.25;0.25;;;;;;;;;;1827958;77;26314;-28
2021/11/26 00:29:49;;;;;;;0.35;0.35;;;;;;;;;;1836763;77;26694;-29
2021/11/26 00:32:16;;;;;;;0.45;0.45;;;;;;;;;;1842861;77;26263;-29
2021/11/26 00:34:44;;;;;;;0.35;0.35;;;;;;;;;;1825873;77;26291;-29
2021/11/26 00:37:11;;;;;;;0.30;0.30;;;;;;;;;;1839471;77;26296;-29
2021/11/26 00:39:39;;;;;;;0.33;0.33;;;;;;;;;;1823060;77;26315;-29
2021/11/26 00:42:06;;;;;;;0.40;0.40;;;;;;;;;;1828641;77;26721;-29
2021/11/26 00:44:33;;;;;;;0.30;0.30;;;;;;;;;;1835787;77;26253;-29
2021/11/26 00:47:01;;;;;;;0.30;0.30;;;;;;;;;;1843759;77;26311;-29
2021/11/26 00:49:28;;;;;;;0.20;0.20;;;;;;;;;;1822316;77;26325;-30
2021/11/26 00:51:55;;;;;;;0.40;0.40;;;;;;;;;;1842926;77;26277;-29
2021/11/26 00:54:23;;;;;;;0.30;0.30;;;;;;;;;;1845398;77;26721;-29
2021/11/26 00:56:50;;;;;;;0.37;0.30;;;;;;;;;;1842860;77;26336;-28
2021/11/26 00:59:17;;;;;;;0.28;0.28;;;;;;;;;;1837279;77;26283;-30
2021/11/26 01:01:45;;;;;;;0.30;0.30;;;;;;;;;;1834385;77;26518;-31
2021/11/26 01:04:12;;;;;;;1.25;0.40;;;;;;;;;;1847992;77;26343;-29
2021/11/26 01:06:39;;;;;;;0.20;0.20;;;;;;;;;;1842070;77;26341;-29
2021/11/26 01:09:06;;;;;;;0.20;0.20;;;;;;;;;;1845393;77;26276;-29
2021/11/26 01:11:34;;;;;;;0.20;0.20;;;;;;;;;;1835192;77;26265;-31
2021/11/26 01:14:01;;;;;;;0.30;0.30;;;;;;;;;;1836340;77;26653;-29
2021/11/26 01:16:29;;;;;;;0.20;0.20;;;;;;;;;;1841067;77;26964;-29
2021/11/26 01:18:56;;;;;;;0.30;0.30;;;;;;;;;;1837083;77;26657;-29
2021/11/26 01:21:23;;;;;;;0.35;0.35;;;;;;;;;;1837647;77;26291;-31
2021/11/26 01:23:51;;;;;;;0.72;0.40;;;;;;;;;;1831043;77;26817;-30
2021/11/26 01:26:18;;;;;;;0.33;0.33;;;;;;;;;;1841986;77;26262;-30
2021/11/26 01:28:47;;;;;;;0.40;0.40;;;;;;;;;;1845942;77;26716;-30
2021/11/26 01:31:14;;;;;;;1.65;0.25;;;;;;;;;;1834074;77;26814;-29
2021/11/26 01:33:42;;;;;;;0.28;0.28;;;;;;;;;;1842647;77;26303;-28
2021/11/26 01:36:09;;;;;;;0.30;0.30;;;;;;;;;;1843834;77;26240;-30
2021/11/26 01:38:36;;;;;;;0.30;0.30;;;;;;;;;;1828523;77;25963;-29
2021/11/26 01:41:08;;;;;;;0.30;0.30;;;;;;;;;;1837144;77;26251;-29
2021/11/26 01:43:33;;;;;;;0.30;0.30;;;;;;;;;;1842939;77;26331;-30
2021/11/26 01:46:10;;;;;;;0.25;0.25;;;;;;;;;;1834948;77;26258;-29
2021/11/26 01:48:38;;;;;;;0.30;0.30;;;;;;;;;;1839586;77;26398;-28
2021/11/26 01:51:06;;;;;;;0.30;0.30;;;;;;;;;;1839641;77;26322;-30
2021/11/26 01:53:33;;;;;;;0.30;0.30;;;;;;;;;;1841926;77;26374;-29
2021/11/26 01:56:01;;;;;;;0.20;0.20;;;;;;;;;;1839428;77;26229;-29
2021/11/26 01:58:28;;;;;;;0.53;0.40;;;;;;;;;;1841671;77;26272;-29
2021/11/26 02:00:56;;;;;;;0.20;0.20;;;;;;;;;;1840176;77;26241;-30
2021/11/26 02:03:23;;;;;;;0.37;0.37;;;;;;;;;;1837999;77;26075;-29
2021/11/26 02:05:51;;;;;;;0.40;0.40;;;;;;;;;;1849156;77;26253;-29
2021/11/26 02:08:18;;;;;;;0.33;0.33;;;;;;;;;;1845104;77;26331;-30
2021/11/26 02:10:45;;;;;;;0.20;0.20;;;;;;;;;;1837977;77;26373;-30
2021/11/26 02:13:13;;;;;;;0.30;0.30;;;;;;;;;;1829078;77;26310;-30
2021/11/26 02:15:42;;;;;;;0.25;0.25;;;;;;;;;;1838272;77;26288;-30
2021/11/26 02:18:10;;;;;;;0.25;0.20;;;;;;;;;;1843250;77;26360;-30
2021/11/26 02:20:38;;;;;;;0.23;0.23;;;;;;;;;;1846421;77;26247;-29
2021/11/26 02:23:05;;;;;;;0.20;0.20;;;;;;;;;;1839958;77;26302;-29
2021/11/26 02:25:33;;;;;;;0.40;0.30;;;;;;;;;;1832949;77;26737;-29
2021/11/26 02:28:01;;;;;;;0.30;0.30;;;;;;;;;;1839553;77;26264;-29
2021/11/26 02:30:28;;;;;;;0.30;0.30;;;;;;;;;;1832985;77;26814;-29
2021/11/26 02:32:57;;;;;;;0.40;0.40;;;;;;;;;;1837781;77;26359;-29
2021/11/26 02:35:26;;;;;;;0.30;0.30;;;;;;;;;;1827280;77;26346;-31
2021/11/26 02:37:54;;;;;;;0.30;0.30;;;;;;;;;;1825770;77;26288;-30
2021/11/26 02:40:22;;;;;;;0.30;0.30;;;;;;;;;;1838993;77;26790;-30
2021/11/26 02:42:50;;;;;;;0.50;0.40;;;;;;;;;;1836728;77;26748;-30
2021/11/26 02:45:19;;;;;;;0.28;0.28;;;;;;;;;;1849013;77;26747;-31
2021/11/26 02:47:47;;;;;;;0.30;0.30;;;;;;;;;;1835347;77;26914;-30
2021/11/26 02:50:16;;;;;;;0.45;0.45;;;;;;;;;;1833492;77;26346;-29
2021/11/26 02:52:45;;;;;;;0.30;0.30;;;;;;;;;;1838553;77;27043;-28
2021/11/26 02:55:13;;;;;;;0.30;0.30;;;;;;;;;;1845489;77;26324;-30
2021/11/26 02:57:41;;;;;;;0.20;0.20;;;;;;;;;;1836016;77;26818;-29
2021/11/26 03:00:10;;;;;;;0.47;0.47;;;;;;;;;;1837034;77;26318;-30
2021/11/26 03:02:37;;;;;;;0.30;0.30;;;;;;;;;;1848790;77;26716;-29
2021/11/26 03:05:05;;;;;;;0.30;0.30;;;;;;;;;;1834887;77;26308;-29
2021/11/26 03:07:32;;;;;;;0.30;0.28;;;;;;;;;;1839026;77;26276;-29
2021/11/26 03:10:00;;;;;;;0.40;0.40;;;;;;;;;;1832523;77;25958;-30
2021/11/26 03:12:28;;;;;;;0.40;0.40;;;;;;;;;;1842610;77;26292;-30
2021/11/26 03:14:55;;;;;;;1.07;0.20;;;;;;;;;;1834517;77;26950;-30
2021/11/26 03:17:24;;;;;;;0.40;0.40;;;;;;;;;;1833846;77;26284;-30
2021/11/26 03:19:52;;;;;;;0.35;0.35;;;;;;;;;;1836936;77;26598;-28
2021/11/26 03:22:20;;;;;;;0.25;0.25;;;;;;;;;;1843991;77;26858;-29
2021/11/26 03:24:47;;;;;;;0.40;0.40;;;;;;;;;;1835829;77;26265;-31
2021/11/26 03:27:14;;;;;;;0.33;0.33;;;;;;;;;;1841622;77;26329;-28
2021/11/26 03:29:42;;;;;;;0.37;0.37;;;;;;;;;;1839120;77;26257;-29
2021/11/26 03:32:09;;;;;;;0.40;0.40;;;;;;;;;;1842454;77;26283;-31
2021/11/26 03:34:36;;;;;;;2.62;0.40;;;;;;;;;;1842319;77;26366;-30
2021/11/26 03:37:04;;;;;;;0.50;0.50;;;;;;;;;;1845095;77;26315;-30
2021/11/26 03:39:32;;;;;;;0.40;0.40;;;;;;;;;;1830787;77;26300;-29
2021/11/26 03:41:59;;;;;;;0.30;0.30;;;;;;;;;;1841171;77;26272;-29
2021/11/26 03:44:27;;;;;;;0.28;0.28;;;;;;;;;;1841297;77;26747;-29
2021/11/26 03:46:54;;;;;;;1.65;0.40;;;;;;;;;;1843419;77;26284;-29
2021/11/26 03:49:21;;;;;;;0.30;0.30;;;;;;;;;;1848843;77;26282;-29
2021/11/26 03:51:49;;;;;;;0.35;0.35;;;;;;;;;;1842490;77;26335;-29
2021/11/26 03:54:16;;;;;;;0.47;0.47;;;;;;;;;;1837998;77;26957;-30
2021/11/26 03:56:44;;;;;;;0.40;0.40;;;;;;;;;;1841413;77;26288;-29
2021/11/26 03:59:11;;;;;;;0.28;0.28;;;;;;;;;;1835264;77;26323;-29
2021/11/26 04:01:39;;;;;;;0.50;0.50;;;;;;;;;;1834814;77;26279;-31
2021/11/26 04:04:06;;;;;;;0.23;0.23;;;;;;;;;;1841641;77;26329;-28
2021/11/26 04:06:33;;;;;;;0.45;0.28;;;;;;;;;;1831522;77;26271;-29
2021/11/26 04:09:00;;;;;;;0.30;0.30;;;;;;;;;;1827466;77;26681;-29
2021/11/26 04:11:28;;;;;;;0.30;0.30;;;;;;;;;;1829206;77;26264;-29
2021/11/26 04:13:55;;;;;;;0.45;0.45;;;;;;;;;;1837750;77;26342;-30
2021/11/26 04:16:22;;;;;;;0.30;0.30;;;;;;;;;;1826354;77;26356;-29
2021/11/26 04:18:50;;;;;;;0.30;0.30;;;;;;;;;;1834276;77;26347;-29
2021/11/26 04:21:17;;;;;;;1.75;0.20;;;;;;;;;;1830141;77;26276;-28
2021/11/26 04:23:44;;;;;;;0.50;0.50;;;;;;;;;;1835889;77;26327;-30
2021/11/26 04:26:12;;;;;;;0.30;0.30;;;;;;;;;;1832232;77;26697;-29
2021/11/26 04:28:40;;;;;;;0.40;0.40;;;;;;;;;;1839652;77;26307;-28
2021/11/26 04:31:07;;;;;;;0.30;0.30;;;;;;;;;;1824090;77;26284;-30
2021/11/26 04:33:34;;;;;;;0.30;0.30;;;;;;;;;;1831328;77;26284;-29
2021/11/26 04:36:03;;;;;;;0.40;0.40;;;;;;;;;;1833466;77;26264;-29
2021/11/26 04:38:31;;;;;;;0.20;0.20;;;;;;;;;;1825654;78;26421;-30
2021/11/26 04:40:58;;;;;;;0.28;0.28;;;;;;;;;;1838528;77;27114;-30
2021/11/26 04:43:25;;;;;;;0.20;0.20;;;;;;;;;;1840608;77;26250;-29
2021/11/26 04:45:53;;;;;;;0.30;0.30;;;;;;;;;;1846370;77;26799;-30
2021/11/26 04:48:21;;;;;;;0.40;0.40;;;;;;;;;;1828478;77;26334;-29
2021/11/26 04:50:49;;;;;;;0.40;0.40;;;;;;;;;;1838407;77;26364;-30
2021/11/26 04:53:17;;;;;;;0.40;0.40;;;;;;;;;;1825812;77;26335;-29
2021/11/26 04:55:44;;;;;;;0.33;0.33;;;;;;;;;;1833086;77;26284;-28
2021/11/26 04:58:12;;;;;;;0.25;0.25;;;;;;;;;;1840233;77;26335;-29
2021/11/26 05:00:40;;;;;;;0.20;0.20;;;;;;;;;;1834686;77;26353;-28
2021/11/26 05:03:07;;;;;;;0.62;0.28;;;;;;;;;;1836197;77;26272;-30
2021/11/26 05:05:35;;;;;;;1.27;0.95;;;;;;;;;;1833638;77;26297;-29
2021/11/26 05:08:03;;;;;;;0.40;0.40;;;;;;;;;;1840898;77;26279;-29
2021/11/26 05:10:32;;;;;;;0.62;0.35;;;;;;;;;;1833182;77;26276;-28
2021/11/26 05:12:59;;;;;;;0.40;0.40;;;;;;;;;;1836580;77;26297;-29
2021/11/26 05:15:30;;;;;;;1.65;0.40;;;;;;;;;;1826511;76;26366;-30
2021/11/26 05:17:58;;;;;;;0.40;0.40;;;;;;;;;;1834925;77;26748;-29
2021/11/26 05:20:27;;;;;;;1.57;0.40;;;;;;;;;;1838855;77;26744;-29
2021/11/26 05:22:55;;;;;;;0.80;0.37;;;;;;;;;;1841451;77;26335;-30
2021/11/26 05:25:22;;;;;;;0.37;0.33;;;;;;;;;;1821364;77;26350;-29
2021/11/26 05:27:50;;;;;;;0.40;0.40;;;;;;;;;;1831249;77;26268;-30
2021/11/26 05:30:18;;;;;;;0.60;0.30;;;;;;;;;;1841088;77;27114;-29
2021/11/26 05:32:48;;;;;;;1.47;0.50;;;;;;;;;;1837046;77;26280;-29
2021/11/26 05:35:15;;;;;;;0.50;0.42;;;;;;;;;;1838392;77;26420;-29
2021/11/26 05:37:43;;;;;;;0.93;0.45;;;;;;;;;;1837140;77;27024;-29
2021/11/26 05:40:12;;;;;;;1.60;0.40;;;;;;;;;;1837737;77;26393;-29
2021/11/26 05:42:39;;;;;;;1.92;0.53;;;;;;;;;;1838763;77;26352;-30
2021/11/26 05:45:07;;;;;;;0.90;0.40;;;;;;;;;;1843557;77;26280;-28
2021/11/26 05:50:26;;;;;;;0.93;0.50;;;;;;;;;;1897944;74;27210;-30
2021/11/26 05:52:54;;;;;;;0.88;0.57;;;;;;;;;;1864276;76;26362;-29
2021/11/26 05:55:23;;;;;;;2.10;0.55;;;;;;;;;;1853657;76;26383;-29
2021/11/26 05:57:51;;;;;;;0.90;0.40;;;;;;;;;;1864085;76;26261;-30
2021/11/26 06:00:19;;;;;;;1.12;0.47;;;;;;;;;;1859692;76;26253;-28
2021/11/26 06:02:47;;;;;;;1.20;0.50;;;;;;;;;;1863292;76;26269;-28
2021/11/26 06:05:14;;;;;;;0.60;0.50;;;;;;;;;;1871759;75;26293;-29
2021/11/26 06:07:42;;;;;;;0.60;0.60;;;;;;;;;;1883401;75;26764;-28
2021/11/26 06:10:11;;;;;;;1.30;0.50;;;;;;;;;;1880633;75;26242;-29
2021/11/26 06:12:40;;;;;;;0.82;0.47;;;;;;;;;;1884234;75;26324;-29
2021/11/26 06:15:08;;;;;;;0.85;0.50;;;;;;;;;;1873700;75;26254;-28
2021/11/26 06:17:36;;;;;;;1.65;0.30;;;;;;;;;;1888928;75;26730;-29
2021/11/26 06:20:03;;;;;;;1.98;0.72;;;;;;;;;;1875357;75;26360;-29
2021/11/26 06:22:31;;;;;;;0.72;0.40;;;;;;;;;;1874358;75;26705;-29
2021/11/26 06:24:58;;;;;;;1.98;0.47;;;;;;;;;;1877354;75;26272;-29
2021/11/26 06:27:26;;;;;;;0.62;0.47;;;;;;;;;;1870868;75;26277;-28
2021/11/26 06:29:53;;;;;;;0.37;0.37;;;;;;;;;;1871438;75;26266;-29
2021/11/26 06:32:22;;;;;;;0.47;0.40;;;;;;;;;;1876483;75;26265;-29
2021/11/26 06:34:50;;;;;;;0.85;0.40;;;;;;;;;;1873426;75;26347;-29
2021/11/26 06:37:17;;;;;;;0.40;0.40;;;;;;;;;;1873556;75;26298;-29
2021/11/26 06:39:45;;;;;;;1.52;0.30;;;;;;;;;;1879709;75;26725;-30
2021/11/26 06:42:12;;;;;;;0.42;0.42;;;;;;;;;;1878232;75;26330;-29
2021/11/26 06:44:39;;;;;;;0.53;0.45;;;;;;;;;;1874372;75;26257;-28
2021/11/26 06:47:07;;;;;;;2.02;0.55;;;;;;;;;;1876304;75;26328;-28
2021/11/26 06:49:34;;;;;;;0.68;0.30;;;;;;;;;;1874352;74;26774;-28
2021/11/26 06:52:02;;;;;;;1.17;0.40;;;;;;;;;;1870670;75;26745;-29
2021/11/26 06:54:29;;;;;;;1.07;0.37;;;;;;;;;;1869451;75;26261;-28
2021/11/26 06:56:57;;;;;;;1.32;0.40;;;;;;;;;;1875895;75;26535;-29
2021/11/26 06:59:24;;;;;;;0.30;0.30;;;;;;;;;;1875114;75;26686;-29
2021/11/26 07:01:51;;;;;;;0.33;0.33;;;;;;;;;;1873699;75;26316;-29
2021/11/26 07:04:19;;;;;;;0.47;0.30;;;;;;;;;;1877586;75;26230;-28
2021/11/26 07:06:46;;;;;;;0.30;0.30;;;;;;;;;;1871046;75;26286;-30
2021/11/26 07:09:13;;;;;;;1.80;0.50;;;;;;;;;;1878777;75;26422;-30
2021/11/26 07:11:41;;;;;;;0.55;0.40;;;;;;;;;;1876338;75;26859;-30
2021/11/26 07:14:09;;;;;;;1.90;0.47;;;;;;;;;;1874904;75;26249;-29
2021/11/26 07:16:36;;;;;;;0.47;0.40;;;;;;;;;;1878223;75;26320;-29
2021/11/26 07:19:04;;;;;;;2.00;0.40;;;;;;;;;;1874950;75;26757;-29
2021/11/26 07:21:31;;;;;;;0.60;0.60;;;;;;;;;;1874809;75;26250;-29
2021/11/26 07:24:01;;;;;;;1.95;0.50;;;;;;;;;;1875098;75;26242;-29
2021/11/26 07:26:28;;;;;;;1.25;0.53;;;;;;;;;;1871144;75;26745;-30
2021/11/26 07:28:56;;;;;;;1.42;0.40;;;;;;;;;;1871576;75;26317;-28
2021/11/26 07:31:23;;;;;;;1.15;0.70;;;;;;;;;;1885557;75;26270;-28
2021/11/26 07:33:50;;;;;;;1.85;0.60;;;;;;;;;;1881766;75;26251;-29
2021/11/26 07:36:18;;;;;;;1.85;0.60;;;;;;;;;;1879890;75;26638;-28
2021/11/26 07:38:45;;;;;;;2.42;0.50;;;;;;;;;;1879327;75;26697;-28
2021/11/26 07:41:13;;;;;;;0.42;0.42;;;;;;;;;;1875979;75;26184;-28
2021/11/26 07:43:40;;;;;;;1.37;0.45;;;;;;;;;;1877879;75;26686;-29
2021/11/26 07:46:08;;;;;;;1.25;0.37;;;;;;;;;;1873221;75;26319;-30
2021/11/26 07:48:35;;;;;;;0.50;0.40;;;;;;;;;;1886461;75;26270;-28
2021/11/26 07:51:02;;;;;;;1.85;0.47;;;;;;;;;;1881108;75;26832;-29
2021/11/26 07:53:32;;;;;;;0.40;0.30;;;;;;;;;;1876427;75;26191;-28
2021/11/26 07:55:59;;;;;;;1.17;0.53;;;;;;;;;;1883245;75;26312;-29
2021/11/26 07:58:26;;;;;;;1.55;0.40;;;;;;;;;;1872559;75;26847;-30
2021/11/26 08:00:54;;;;;;;1.45;0.40;;;;;;;;;;1894387;75;26258;-29
2021/11/26 08:03:22;;;;;;;0.53;0.40;;;;;;;;;;1874477;75;26328;-29
2021/11/26 08:05:50;;;;;;;1.17;0.40;;;;;;;;;;1872224;75;26376;-30
2021/11/26 08:08:18;;;;;;;0.30;0.30;;;;;;;;;;1873383;75;26557;-29
2021/11/26 08:10:45;;;;;;;0.30;0.30;;;;;;;;;;1873311;75;26336;-29
2021/11/26 08:13:12;;;;;;;0.40;0.40;;;;;;;;;;1877065;75;26427;-30
2021/11/26 08:15:40;;;;;;;0.40;0.40;;;;;;;;;;1884730;75;26683;-29
2021/11/26 08:18:07;;;;;;;3.98;0.42;;;;;;;;;;1878300;75;26334;-28
2021/11/26 08:20:37;;;;;;;0.42;0.37;;;;;;;;;;1880602;75;26246;-29
2021/11/26 08:23:05;;;;;;;0.40;0.40;;;;;;;;;;1875011;75;26238;-29
2021/11/26 08:25:33;;;;;;;1.55;0.37;;;;;;;;;;1881709;75;26316;-29
2021/11/26 08:28:01;;;;;;;0.55;0.50;;;;;;;;;;1883689;75;26247;-28
2021/11/26 08:30:28;;;;;;;1.22;0.40;;;;;;;;;;1881881;75;26887;-28
2021/11/26 08:32:56;;;;;;;0.60;0.50;;;;;;;;;;1875576;75;26230;-28
2021/11/26 08:35:26;;;;;;;1.57;0.40;;;;;;;;;;1887678;74;26345;-28
2021/11/26 08:37:54;;;;;;;0.30;0.30;;;;;;;;;;1884357;75;26290;-28
2021/11/26 08:40:21;;;;;;;3.20;0.40;;;;;;;;;;1883418;75;26255;-28
2021/11/26 08:42:49;;;;;;;3.95;0.50;;;;;;;;;;1878334;74;26238;-29
2021/11/26 08:45:19;;;;;;;1.40;0.47;;;;;;;;;;1884540;75;26284;-28
2021/11/26 08:47:46;;;;;;;0.30;0.30;;;;;;;;;;1881457;75;26342;-28
2021/11/26 08:50:18;;;;;;;0.25;0.25;;;;;;;;;;1882355;75;26321;-30
2021/11/26 08:52:46;;;;;;;0.30;0.30;;;;;;;;;;1878534;75;26307;-27
2021/11/26 08:55:16;;;;;;;0.30;0.30;;;;;;;;;;1878098;75;26303;-28
2021/11/26 08:57:50;;;;;;;1.07;0.40;;;;;;;;;;1881744;75;26328;-30
2021/11/26 09:00:14;;;;;;;0.42;0.42;;;;;;;;;;1885937;75;26246;-29
2021/11/26 09:02:41;;;;;;;0.30;0.30;;;;;;;;;;1873049;75;26655;-28
2021/11/26 09:05:09;;;;;;;0.40;0.40;;;;;;;;;;1873974;75;26350;-30
2021/11/26 09:07:36;;;;;;;0.30;0.30;;;;;;;;;;1871380;75;26261;-29
2021/11/26 09:10:04;;;;;;;0.30;0.30;;;;;;;;;;1866751;75;26239;-29
2021/11/26 09:12:31;;;;;;;0.30;0.30;;;;;;;;;;1873859;75;26263;-29
2021/11/26 09:14:59;;;;;;;0.72;0.40;;;;;;;;;;1872464;75;26315;-27
2021/11/26 09:17:26;;;;;;;0.40;0.40;;;;;;;;;;1877171;75;26831;-27
2021/11/26 09:19:54;;;;;;;0.45;0.30;;;;;;;;;;1878436;75;26332;-28
2021/11/26 09:22:21;;;;;;;0.30;0.30;;;;;;;;;;1883519;75;26690;-28
2021/11/26 09:24:48;;;;;;;0.30;0.30;;;;;;;;;;1878359;75;26748;-27
2021/11/26 09:27:16;;;;;;;0.45;0.40;;;;;;;;;;1881323;75;26301;-28
2021/11/26 09:29:46;;;;;;;0.25;0.25;;;;;;;;;;1868971;75;26734;-28
2021/11/26 09:32:12;;;;;;;0.30;0.30;;;;;;;;;;1878749;75;26558;-29
2021/11/26 09:34:39;;;;;;;0.20;0.20;;;;;;;;;;1873918;75;28140;-28
2021/11/26 09:37:07;;;;;;;0.33;0.33;;;;;;;;;;1860045;75;28637;-30
2021/11/26 09:39:34;;;;;;;0.30;0.30;;;;;;;;;;1879461;75;26258;-31
2021/11/26 09:42:02;;;;;;;0.40;0.40;;;;;;;;;;1877423;75;26714;-28
2021/11/26 09:44:33;;;;;;;0.30;0.30;;;;;;;;;;1884309;75;26309;-28
2021/11/26 09:46:58;;;;;;;0.78;0.40;;;;;;;;;;1856378;75;28164;-28
2021/11/26 09:49:25;;;;;;;0.40;0.40;;;;;;;;;;1878484;75;26340;-28
2021/11/26 09:51:52;;;;;;;0.23;0.23;;;;;;;;;;1877574;75;28250;-29
2021/11/26 09:54:21;;;;;;;0.40;0.20;;;;;;;;;;1885363;75;26704;-28
2021/11/26 09:56:48;;;;;;;0.30;0.30;;;;;;;;;;1887813;75;27003;-28
2021/11/26 09:59:16;;;;;;;0.30;0.30;;;;;;;;;;1882285;75;26324;-28
2021/11/26 10:01:44;;;;;;;1.25;0.30;;;;;;;;;;1884097;75;26323;-28
2021/11/26 10:04:18;;;;;;;0.30;0.30;;;;;;;;;;1886236;75;26289;-28
2021/11/26 10:06:46;;;;;;;0.20;0.20;;;;;;;;;;1895485;75;26268;-27
2021/11/26 10:09:18;;;;;;;0.30;0.30;;;;;;;;;;1880073;75;26270;-28
2021/11/26 10:14:24;;;;;;;0.30;0.30;;;;;;;;;;1899235;74;27446;-30
2021/11/26 10:16:54;;;;;;;0.98;0.40;;;;;;;;;;1866206;75;38494;-28
2021/11/26 10:19:32;;;;;;;0.30;0.30;;;;;;;;;;1859134;76;25782;-28
2021/11/26 10:21:59;;;;;;;3.02;0.40;;;;;;;;;;1858202;75;26258;-27
2021/11/26 10:24:27;;;;;;;0.28;0.28;;;;;;;;;;1858544;75;26222;-28
2021/11/26 10:26:55;;;;;;;0.78;0.50;;;;;;;;;;1869031;75;26247;-27
2021/11/26 10:29:33;;;;;;;0.40;0.40;;;;;;;;;;1861865;76;26658;-28
2021/11/26 10:32:08;;;;;;;0.53;0.50;;;;;;;;;;1868696;76;26271;-28
2021/11/26 10:34:36;;;;;;;0.55;0.35;;;;;;;;;;1852463;75;26266;-28
2021/11/26 10:37:06;;;;;;;0.50;0.50;;;;;;;;;;1873689;75;27342;-28
2021/11/26 10:39:34;;;;;;;0.82;0.35;;;;;;;;;;1862682;76;26253;-28
2021/11/26 10:42:02;;;;;;;0.30;0.30;;;;;;;;;;1856057;75;26251;-28
2021/11/26 10:44:46;;;;;;;0.53;0.30;;;;;;;;;;1852925;76;26340;-28
2021/11/26 10:47:36;;;;;;;0.60;0.40;;;;;;;;;;1862324;75;26847;-27
2021/11/26 10:50:16;;;;;;;0.95;0.40;;;;;;;;;;1855900;76;26930;-28
2021/11/26 10:58:00;;;;;;;1.57;0.60;;;;;;;;;;1852936;75;26332;-30
2021/11/26 11:00:25;;;;;;;1.60;0.50;;;;;;;;;;1857272;75;26345;-29
2021/11/26 11:02:54;;;;;;;0.60;0.50;;;;;;;;;;1854888;76;26326;-28
2021/11/26 11:05:32;;;;;;;1.20;0.50;;;;;;;;;;1845307;75;26509;-29
2021/11/26 11:08:01;;;;;;;0.80;0.40;;;;;;;;;;1848013;77;27000;-28
2021/11/26 11:10:30;;;;;;;0.35;0.35;;;;;;;;;;1840026;76;26717;-29
2021/11/26 11:12:59;;;;;;;0.30;0.30;;;;;;;;;;1843543;75;26363;-28
2021/11/26 11:15:27;;;;;;;0.20;0.20;;;;;;;;;;1852244;75;26294;-28
2021/11/26 11:17:54;;;;;;;1.17;0.30;;;;;;;;;;1862163;76;26763;-28
2021/11/26 11:20:24;;;;;;;0.33;0.33;;;;;;;;;;1855291;75;26293;-28
2021/11/26 11:22:50;;;;;;;0.57;0.33;;;;;;;;;;1858074;75;26334;-29
2021/11/26 11:25:27;;;;;;;0.50;0.50;;;;;;;;;;1855435;76;26744;-29
2021/11/26 11:27:49;;;;;;;2.55;0.42;;;;;;;;;;1860410;76;26250;-29
2021/11/26 11:30:16;;;;;;;0.30;0.30;;;;;;;;;;1859923;75;26306;-29
2021/11/26 11:32:43;;;;;;;0.47;0.42;;;;;;;;;;1860837;77;26283;-28
2021/11/26 11:35:12;;;;;;;0.40;0.30;;;;;;;;;;1861101;75;26307;-29
2021/11/26 11:37:39;;;;;;;0.85;0.40;;;;;;;;;;1860887;75;26327;-29
2021/11/26 11:40:09;;;;;;;0.40;0.40;;;;;;;;;;1861158;75;26250;-29
2021/11/26 11:42:38;;;;;;;0.68;0.47;;;;;;;;;;1857599;75;26368;-28
2021/11/26 11:45:10;;;;;;;0.45;0.40;;;;;;;;;;1858096;77;26357;-28
2021/11/26 11:47:45;;;;;;;0.50;0.50;;;;;;;;;;1860745;75;26733;-29
2021/11/26 11:50:20;;;;;;;0.40;0.40;;;;;;;;;;1854378;77;26765;-29
2021/11/26 11:52:51;;;;;;;0.90;0.47;;;;;;;;;;1861727;75;26284;-28
2021/11/26 11:55:22;;;;;;;0.30;0.30;;;;;;;;;;1851723;76;26268;-29
2021/11/26 11:57:50;;;;;;;0.60;0.60;;;;;;;;;;1843092;75;26298;-29
2021/11/26 12:00:19;;;;;;;0.40;0.40;;;;;;;;;;1854739;75;26640;-29
2021/11/26 12:02:47;;;;;;;0.82;0.60;;;;;;;;;;1850599;75;26386;-28
2021/11/26 12:05:28;;;;;;;0.53;0.53;;;;;;;;;;1854921;75;26765;-29
2021/11/26 12:08:16;;;;;;;0.40;0.40;;;;;;;;;;1859012;75;26292;-29
2021/11/26 12:10:45;;;;;;;0.50;0.50;;;;;;;;;;1851450;75;26286;-29
2021/11/26 12:13:22;;;;;;;0.40;0.40;;;;;;;;;;1859741;75;26816;-28
2021/11/26 12:15:51;;;;;;;0.70;0.70;;;;;;;;;;1855801;77;26267;-29
2021/11/26 12:18:19;;;;;;;0.60;0.60;;;;;;;;;;1861057;75;26266;-28
2021/11/26 12:20:47;;;;;;;0.50;0.50;;;;;;;;;;1849592;75;26247;-29
2021/11/26 12:23:22;;;;;;;0.42;0.42;;;;;;;;;;1861604;75;26315;-29
2021/11/26 12:25:59;;;;;;;0.50;0.50;;;;;;;;;;1849911;75;26712;-29
2021/11/26 12:28:22;;;;;;;0.50;0.50;;;;;;;;;;1850680;75;26414;-29
2021/11/26 12:30:49;;;;;;;0.42;0.42;;;;;;;;;;1857450;75;26797;-29
2021/11/26 12:33:21;;;;;;;0.50;0.50;;;;;;;;;;1835804;75;26850;-28
2021/11/26 12:35:58;;;;;;;0.55;0.55;;;;;;;;;;1856841;77;26221;-29
2021/11/26 12:38:46;;;;;;;0.65;0.45;;;;;;;;;;1858217;77;26241;-29
2021/11/26 12:41:30;;;;;;;0.53;0.53;;;;;;;;;;1859955;75;26555;-28
2021/11/26 12:43:57;;;;;;;0.45;0.45;;;;;;;;;;1857222;75;26232;-29
2021/11/26 12:46:29;;;;;;;0.53;0.40;;;;;;;;;;1855349;75;26757;-29
2021/11/26 12:51:49;;;;;;;0.37;0.37;;;;;;;;;;1847022;77;26284;-28
2021/11/26 12:54:30;;;;;;;0.42;0.42;;;;;;;;;;1860377;77;26366;-28
2021/11/26 12:56:58;;;;;;;0.53;0.53;;;;;;;;;;1862559;75;26237;-29
2021/11/26 12:59:26;;;;;;;0.37;0.37;;;;;;;;;;1862506;75;26567;-28
2021/11/26 13:01:54;;;;;;;0.50;0.50;;;;;;;;;;1858693;75;26315;-29
2021/11/26 13:04:21;;;;;;;0.50;0.50;;;;;;;;;;1857171;76;26313;-29
2021/11/26 13:06:49;;;;;;;0.50;0.50;;;;;;;;;;1857123;75;26293;-29
2021/11/26 13:09:17;;;;;;;0.40;0.40;;;;;;;;;;1856976;75;26288;-29
2021/11/26 13:11:45;;;;;;;0.40;0.40;;;;;;;;;;1857314;77;26268;-29
2021/11/26 13:14:13;;;;;;;0.45;0.40;;;;;;;;;;1861129;75;26684;-29
2021/11/26 13:16:41;;;;;;;0.50;0.50;;;;;;;;;;1859536;75;26274;-28
2021/11/26 13:19:12;;;;;;;0.60;0.60;;;;;;;;;;1852040;75;26230;-29
2021/11/26 13:21:40;;;;;;;0.40;0.40;;;;;;;;;;1857578;75;26795;-28
2021/11/26 13:24:07;;;;;;;0.45;0.45;;;;;;;;;;1845392;75;26276;-30
2021/11/26 13:26:35;;;;;;;0.40;0.40;;;;;;;;;;1842237;75;26781;-29
2021/11/26 13:29:02;;;;;;;0.30;0.30;;;;;;;;;;1856257;77;26275;-29
2021/11/26 13:31:31;;;;;;;0.20;0.20;;;;;;;;;;1852638;76;26269;-29
2021/11/26 13:34:04;;;;;;;0.30;0.30;;;;;;;;;;1849239;76;26360;-29
2021/11/26 13:36:29;;;;;;;0.40;0.40;;;;;;;;;;1858841;75;26961;-29
2021/11/26 13:39:05;;;;;;;0.30;0.30;;;;;;;;;;1842678;75;26256;-28
2021/11/26 13:41:31;;;;;;;0.40;0.40;;;;;;;;;;1858054;75;26712;-29
2021/11/26 13:44:12;;;;;;;0.30;0.30;;;;;;;;;;1858776;75;26855;-29
2021/11/26 13:46:41;;;;;;;0.50;0.50;;;;;;;;;;1851659;75;26715;-28
2021/11/26 13:49:12;;;;;;;0.30;0.30;;;;;;;;;;1857851;75;26258;-29
2021/11/26 13:51:41;;;;;;;0.20;0.20;;;;;;;;;;1859469;77;26273;-30
2021/11/26 13:54:10;;;;;;;0.30;0.30;;;;;;;;;;1853697;76;26264;-29
2021/11/26 13:56:39;;;;;;;1.27;0.40;;;;;;;;;;1852782;76;26256;-29
2021/11/26 13:59:08;;;;;;;0.40;0.40;;;;;;;;;;1859195;76;26248;-29
2021/11/26 14:01:37;;;;;;;0.42;0.42;;;;;;;;;;1847851;75;26266;-29
2021/11/26 14:04:05;;;;;;;0.30;0.30;;;;;;;;;;1858891;75;26277;-28
2021/11/26 14:06:32;;;;;;;0.37;0.37;;;;;;;;;;1861240;75;26336;-29
2021/11/26 14:09:01;;;;;;;0.40;0.40;;;;;;;;;;1854992;75;26286;-29
2021/11/26 14:11:33;;;;;;;0.65;0.45;;;;;;;;;;1857252;75;26272;-29
2021/11/26 14:14:04;;;;;;;0.30;0.30;;;;;;;;;;1855955;75;26319;-28
2021/11/26 14:16:32;;;;;;;0.65;0.40;;;;;;;;;;1830294;76;26287;-29
2021/11/26 14:19:00;;;;;;;0.50;0.50;;;;;;;;;;1839747;76;27143;-28
2021/11/26 14:21:29;;;;;;;0.40;0.40;;;;;;;;;;1841638;76;26263;-28
2021/11/26 14:24:01;;;;;;;0.40;0.40;;;;;;;;;;1841906;76;26293;-30
2021/11/26 14:26:30;;;;;;;0.50;0.50;;;;;;;;;;1845119;76;26832;-29
2021/11/26 14:29:10;;;;;;;1.67;0.60;;;;;;;;;;1839048;76;26344;-28
2021/11/26 14:31:39;;;;;;;1.02;0.50;;;;;;;;;;1841798;76;26841;-29
2021/11/26 14:34:08;;;;;;;0.50;0.50;;;;;;;;;;1846295;77;26348;-28
2021/11/26 14:36:35;;;;;;;4.58;0.68;;;;;;;;;;1841707;77;26283;-29
2021/11/26 14:39:03;;;;;;;2.27;0.40;;;;;;;;;;1846446;76;26534;-29
2021/11/26 14:41:31;;;;;;;0.40;0.40;;;;;;;;;;1832193;77;26226;-28
2021/11/26 14:44:07;;;;;;;0.37;0.37;;;;;;;;;;1844128;77;26254;-29
2021/11/26 14:46:52;;;;;;;0.50;0.50;;;;;;;;;;1841199;77;26305;-29
2021/11/26 14:49:21;;;;;;;0.40;0.40;;;;;;;;;;1844860;76;26586;-28
2021/11/26 14:51:49;;;;;;;0.90;0.60;;;;;;;;;;1840906;76;26262;-28
2021/11/26 14:54:21;;;;;;;0.42;0.40;;;;;;;;;;1837365;76;26631;-28
2021/11/26 14:56:48;;;;;;;0.30;0.30;;;;;;;;;;1838705;76;26262;-28
2021/11/26 14:59:15;;;;;;;0.35;0.35;;;;;;;;;;1840297;76;26257;-29
2021/11/26 15:01:45;;;;;;;0.70;0.40;;;;;;;;;;1845379;76;26265;-30
2021/11/26 15:04:12;;;;;;;2.30;0.50;;;;;;;;;;1838947;76;38538;-31
2021/11/26 15:06:40;;;;;;;1.85;0.47;;;;;;;;;;1842059;76;26281;-30